Shell Lake, Canada
Current Conditions -  °F | °C
As of 12:00 AM on Sunday 23 Nov 2014 (Local Time) from CYPA Reporting Station
Light Snow Light Snow  
Wind Chill: -5°   Ceiling: 3600
Heat Index: 10°   Visibility: 3mi
Dew Point:   Wind: 13mph
Humidity: 85%   Direction: 40°NE
Pressure: 29.54"   Gusts: 24mph
Location:  53.3°N, 107.05°W
Report Text: CYPA 230600Z 04011G21KT 3SM -SN DRSN OVC036 M12/M14 A2954 RMK SC8 /S03/ SLP033
Loading
Personal Weather Stations






























Interactive Weather Map New forecast layout! Learn more

10-Day Weather Forecast

Advertisements
Track Severe Weather on mobile